Terminal Aerodrome Forecast
Issued by NWS

Home | Current Version | Previous Version | Graphics & Text | Print | Product List | Glossary On
Versions: 1 2 3 4 5 6 7 8 9 10 11 12 13 14 15 16
000
FTUS43 KGRB 210500
TAFAUW
TAF
KAUW 210525Z 2106/2206 02004KT P6SM SCT025 BKN035
     FM210700 02004KT P6SM SCT015 BKN025
     FM211500 01006KT P6SM SCT040
     FM211800 03006KT P6SM SKC=

USA.gov is the U.S. government's official web portal to all federal, state and local government web resources and services.